createdAt,value
2023-05-09T00:02:08.056Z,63.82
2023-05-09T00:04:35.488Z,63.99
2023-05-09T00:07:02.316Z,62.88
2023-05-09T00:09:29.068Z,63.08
2023-05-09T00:11:55.979Z,61.49
2023-05-09T00:14:22.664Z,60.62
2023-05-09T00:16:49.483Z,61.72
2023-05-09T00:19:16.251Z,60.97
2023-05-09T00:21:42.970Z,60.38
2023-05-09T00:24:09.542Z,61.06
2023-05-09T00:26:36.130Z,63.01
2023-05-09T00:29:02.719Z,64.38
2023-05-09T00:31:29.359Z,63.59
2023-05-09T00:33:56.131Z,65.45
2023-05-09T00:36:23.438Z,64.13
2023-05-09T00:38:50.100Z,62.36
2023-05-09T00:41:18.023Z,62.36
2023-05-09T00:43:44.661Z,64.12
2023-05-09T00:46:11.812Z,64.23
2023-05-09T00:48:38.565Z,64.53
2023-05-09T00:51:05.300Z,65.19
2023-05-09T00:53:32.535Z,63.15
2023-05-09T00:56:00.614Z,63.05
2023-05-09T00:58:27.434Z,61.94
2023-05-09T01:00:54.046Z,61.30
2023-05-09T01:03:20.856Z,62.10
2023-05-09T01:05:58.589Z,64.20
2023-05-09T01:08:31.266Z,63.16
2023-05-09T01:11:04.840Z,62.07
2023-05-09T01:14:06.314Z,63.02
2023-05-09T01:16:47.406Z,66.28
2023-05-09T01:19:46.033Z,64.44
2023-05-09T01:22:16.297Z,64.83
2023-05-09T01:25:01.807Z,65.45
2023-05-09T01:27:51.104Z,63.66
2023-05-09T01:30:20.030Z,64.97
2023-05-09T01:32:51.460Z,63.49
2023-05-09T01:35:21.642Z,63.85
2023-05-09T01:37:51.011Z,63.52
2023-05-09T01:40:20.825Z,63.38
2023-05-09T01:43:07.142Z,62.48
2023-05-09T01:45:34.867Z,63.62
2023-05-09T01:48:02.967Z,62.86
2023-05-09T01:50:30.748Z,61.64
2023-05-09T01:52:59.687Z,63.87
2023-05-09T01:55:34.194Z,64.59
2023-05-09T01:58:01.984Z,65.22
2023-05-09T02:00:29.148Z,64.14
2023-05-09T02:02:58.358Z,63.39
2023-05-09T02:05:28.360Z,63.26
2023-05-09T02:08:00.774Z,62.50
2023-05-09T02:10:28.768Z,62.45
2023-05-09T02:12:56.288Z,62.16
2023-05-09T02:15:24.303Z,61.05
2023-05-09T02:17:50.930Z,61.03
2023-05-09T02:20:19.786Z,61.44
2023-05-09T02:22:47.848Z,63.50
2023-05-09T02:25:18.665Z,65.00
2023-05-09T02:27:46.789Z,64.69
2023-05-09T02:30:23.473Z,63.42
2023-05-09T02:32:57.396Z,63.48
2023-05-09T02:35:26.100Z,62.85
2023-05-09T02:37:53.498Z,62.90
2023-05-09T02:40:20.862Z,61.72
2023-05-09T02:42:47.452Z,62.13
2023-05-09T02:45:14.424Z,61.99
2023-05-09T02:47:41.224Z,62.34
2023-05-09T02:50:08.351Z,62.18
2023-05-09T02:52:35.049Z,61.82
2023-05-09T02:55:02.526Z,60.86
2023-05-09T02:57:29.185Z,62.90
2023-05-09T02:59:55.889Z,63.55
2023-05-09T03:02:23.885Z,64.77
2023-05-09T03:04:50.730Z,64.52
2023-05-09T03:07:17.385Z,63.95
2023-05-09T03:09:44.050Z,62.49
2023-05-09T03:12:10.962Z,62.17
2023-05-09T03:14:37.641Z,62.05
2023-05-09T03:17:04.281Z,62.60
2023-05-09T03:19:30.961Z,62.60
2023-05-09T03:21:57.598Z,62.56
2023-05-09T03:24:26.722Z,62.06
2023-05-09T03:26:53.320Z,61.80
2023-05-09T03:29:20.025Z,62.66
2023-05-09T03:31:46.902Z,63.62
2023-05-09T03:34:15.319Z,63.38
2023-05-09T03:36:43.720Z,63.76
2023-05-09T03:39:10.810Z,65.62
2023-05-09T03:41:37.725Z,67.87
2023-05-09T03:44:05.164Z,65.83
2023-05-09T03:46:31.833Z,66.35
2023-05-09T03:48:58.582Z,67.32
2023-05-09T03:51:25.684Z,67.23
2023-05-09T03:53:52.423Z,71.35
2023-05-09T03:56:19.082Z,67.74
2023-05-09T03:58:45.717Z,67.28
2023-05-09T04:01:12.354Z,67.64
2023-05-09T04:03:39.266Z,66.26
2023-05-09T04:06:06.212Z,69.13
2023-05-09T04:08:33.084Z,72.57
2023-05-09T04:10:59.696Z,71.64
2023-05-09T04:13:26.505Z,69.16
2023-05-09T04:15:53.211Z,67.35
2023-05-09T04:18:19.855Z,70.99
2023-05-09T04:20:46.470Z,69.95
2023-05-09T04:23:13.159Z,68.33
2023-05-09T04:25:40.094Z,68.89
2023-05-09T04:28:06.679Z,69.02
2023-05-09T04:30:33.332Z,67.83
2023-05-09T04:33:00.049Z,67.89
2023-05-09T04:35:27.250Z,69.16
2023-05-09T04:37:53.952Z,66.87
2023-05-09T04:40:20.596Z,66.34
2023-05-09T04:42:47.187Z,66.24
2023-05-09T04:45:14.549Z,64.96
2023-05-09T04:47:41.345Z,66.03
2023-05-09T04:50:08.417Z,66.38
2023-05-09T04:52:35.051Z,67.75
2023-05-09T04:55:02.383Z,67.95
2023-05-09T04:57:29.059Z,66.74
2023-05-09T04:59:55.750Z,67.89
2023-05-09T05:02:22.693Z,65.58
2023-05-09T05:04:49.530Z,65.11
2023-05-09T05:07:16.112Z,66.74
2023-05-09T05:09:42.729Z,67.62
2023-05-09T05:12:09.881Z,65.35
2023-05-09T05:14:37.012Z,68.78
2023-05-09T05:17:03.611Z,66.64
2023-05-09T05:19:30.368Z,64.22
2023-05-09T05:21:56.978Z,63.23
2023-05-09T05:24:23.603Z,63.41
2023-05-09T05:26:50.330Z,65.65
2023-05-09T05:29:17.888Z,68.51
2023-05-09T05:31:44.584Z,66.98
2023-05-09T05:34:11.349Z,64.36
2023-05-09T05:36:38.051Z,63.61
2023-05-09T05:39:04.636Z,61.90
2023-05-09T05:41:31.440Z,62.00
2023-05-09T05:43:58.048Z,62.98
2023-05-09T05:46:24.739Z,64.34
2023-05-09T05:48:51.453Z,62.39
2023-05-09T05:51:18.133Z,61.08
2023-05-09T05:53:44.771Z,62.70
2023-05-09T05:56:11.455Z,61.21
2023-05-09T05:58:38.350Z,59.85
2023-05-09T06:01:05.149Z,60.40
2023-05-09T06:03:32.238Z,63.23
2023-05-09T06:05:59.390Z,61.27
2023-05-09T06:08:25.988Z,59.54
2023-05-09T06:10:52.608Z,59.69
2023-05-09T06:13:19.336Z,60.84
2023-05-09T06:15:46.006Z,62.83
2023-05-09T06:18:12.780Z,62.58
2023-05-09T06:20:39.524Z,62.83
2023-05-09T06:23:06.122Z,61.33
2023-05-09T06:25:32.733Z,64.45
2023-05-09T06:27:59.309Z,62.79
2023-05-09T06:30:27.025Z,63.37
2023-05-09T06:32:54.881Z,64.63
2023-05-09T06:35:21.856Z,63.72
2023-05-09T06:37:49.135Z,64.27
2023-05-09T06:40:17.030Z,63.60
2023-05-09T06:42:43.804Z,63.42
2023-05-09T06:45:11.207Z,63.75
2023-05-09T06:47:37.868Z,63.06
2023-05-09T06:50:04.765Z,61.57
2023-05-09T06:52:31.496Z,60.48
2023-05-09T06:54:58.152Z,61.03
2023-05-09T06:57:38.213Z,59.35
2023-05-09T07:00:05.828Z,57.75
2023-05-09T07:02:32.584Z,59.08
2023-05-09T07:04:59.327Z,62.68
2023-05-09T07:07:26.047Z,59.03
2023-05-09T07:09:55.264Z,57.57
2023-05-09T07:12:27.422Z,57.03
2023-05-09T07:14:54.014Z,58.55
2023-05-09T07:17:23.373Z,59.07
2023-05-09T07:19:50.944Z,59.04
2023-05-09T07:22:17.668Z,60.36
2023-05-09T07:24:44.635Z,62.92
2023-05-09T07:27:11.605Z,61.18
2023-05-09T07:29:38.405Z,59.30
2023-05-09T07:32:05.320Z,59.75
2023-05-09T07:34:32.009Z,60.29
2023-05-09T07:36:58.785Z,59.22
2023-05-09T07:39:25.701Z,57.91
2023-05-09T07:41:52.321Z,58.82
2023-05-09T07:44:18.907Z,59.77
2023-05-09T07:46:45.560Z,61.89
2023-05-09T07:49:12.156Z,61.84
2023-05-09T07:51:38.869Z,60.76
2023-05-09T07:54:05.729Z,59.48
2023-05-09T07:56:32.453Z,59.80
2023-05-09T07:58:59.049Z,58.02
2023-05-09T08:01:25.676Z,56.32
2023-05-09T08:03:52.491Z,59.75
2023-05-09T08:06:19.366Z,60.21
2023-05-09T08:08:46.107Z,57.42
2023-05-09T08:11:12.655Z,55.38
2023-05-09T08:13:39.367Z,55.26
2023-05-09T08:16:06.714Z,56.58
2023-05-09T08:18:33.298Z,56.94
2023-05-09T08:21:00.008Z,59.19
2023-05-09T08:23:26.920Z,58.04
2023-05-09T08:25:54.689Z,54.93
2023-05-09T08:28:24.304Z,53.74
2023-05-09T08:30:52.092Z,56.83
2023-05-09T08:33:19.238Z,55.00
2023-05-09T08:35:46.033Z,54.31
2023-05-09T08:38:12.623Z,54.90
2023-05-09T08:40:41.073Z,54.76
2023-05-09T08:43:08.100Z,55.68
2023-05-09T08:45:58.438Z,54.85
2023-05-09T08:48:25.906Z,54.58
2023-05-09T08:50:53.277Z,53.60
2023-05-09T08:53:21.570Z,54.83
2023-05-09T08:55:49.503Z,55.11
2023-05-09T08:58:17.195Z,56.61
2023-05-09T09:00:44.180Z,55.98
2023-05-09T09:03:11.155Z,54.60
2023-05-09T09:05:42.508Z,55.97
2023-05-09T09:08:11.190Z,56.20
2023-05-09T09:10:42.730Z,56.68
2023-05-09T09:13:11.450Z,58.48
2023-05-09T09:15:40.621Z,57.43
2023-05-09T09:18:10.049Z,56.02
2023-05-09T09:20:49.954Z,57.30
2023-05-09T09:23:22.093Z,55.46
2023-05-09T09:25:49.145Z,55.52
2023-05-09T09:28:15.873Z,56.14
2023-05-09T09:30:48.080Z,56.84
2023-05-09T09:33:21.941Z,55.80
2023-05-09T09:35:56.953Z,58.14
2023-05-09T09:38:24.590Z,57.46
2023-05-09T09:40:58.736Z,56.66
2023-05-09T09:43:29.294Z,57.69
2023-05-09T09:45:57.290Z,58.32
2023-05-09T09:48:25.736Z,57.86
2023-05-09T09:50:54.956Z,59.40
2023-05-09T09:53:21.964Z,60.43
2023-05-09T09:55:53.295Z,58.28
2023-05-09T09:58:25.156Z,61.24
2023-05-09T10:01:09.114Z,59.32
2023-05-09T10:03:41.222Z,57.99
2023-05-09T10:06:12.459Z,58.52
2023-05-09T10:08:40.214Z,57.69
2023-05-09T10:11:07.391Z,59.22
2023-05-09T10:13:36.475Z,59.60
2023-05-09T10:16:04.342Z,61.63
2023-05-09T10:18:31.902Z,58.77
2023-05-09T10:21:03.947Z,58.23
2023-05-09T10:23:32.866Z,58.29
2023-05-09T10:26:16.600Z,55.97
2023-05-09T10:28:45.750Z,55.61
2023-05-09T10:31:18.146Z,57.88
2023-05-09T10:33:49.204Z,60.65
2023-05-09T10:36:21.404Z,60.80
2023-05-09T10:38:49.424Z,59.63
2023-05-09T10:41:18.790Z,60.08
2023-05-09T10:43:46.109Z,58.10
2023-05-09T10:46:13.683Z,61.55
2023-05-09T10:48:42.204Z,59.91
2023-05-09T10:51:09.574Z,62.09
2023-05-09T10:53:45.189Z,59.13
2023-05-09T10:56:31.862Z,61.17
2023-05-09T10:58:59.493Z,61.75
2023-05-09T11:01:37.270Z,59.40
2023-05-09T11:04:13.033Z,57.04
2023-05-09T11:06:44.069Z,57.98
2023-05-09T11:09:33.481Z,57.60
2023-05-09T11:12:06.099Z,56.88
2023-05-09T11:14:44.780Z,55.49
2023-05-09T11:17:13.979Z,59.10
2023-05-09T11:19:46.319Z,59.22
2023-05-09T11:22:32.181Z,56.95
2023-05-09T11:25:07.710Z,59.65
2023-05-09T11:27:40.098Z,57.88
2023-05-09T11:30:08.135Z,59.23
2023-05-09T11:33:00.935Z,57.99
2023-05-09T11:35:28.062Z,59.76
2023-05-09T11:38:05.630Z,57.85
2023-05-09T11:40:34.069Z,57.13
2023-05-09T11:43:01.448Z,54.35
2023-05-09T11:45:33.206Z,55.60
2023-05-09T11:48:01.252Z,54.53
2023-05-09T11:50:28.741Z,52.97
2023-05-09T11:52:55.391Z,56.21
2023-05-09T11:55:23.016Z,56.41
2023-05-09T11:57:54.131Z,57.83
2023-05-09T12:00:23.634Z,56.19
2023-05-09T12:02:51.365Z,54.69
2023-05-09T12:05:20.267Z,56.00
2023-05-09T12:07:47.828Z,54.88
2023-05-09T12:10:17.161Z,53.69
2023-05-09T12:12:46.690Z,56.62
2023-05-09T12:15:14.529Z,54.56
2023-05-09T12:17:45.306Z,54.49
2023-05-09T12:20:12.254Z,57.20
2023-05-09T12:22:43.101Z,59.30
2023-05-09T12:25:11.470Z,58.75
2023-05-09T12:27:39.619Z,57.28
2023-05-09T12:30:16.084Z,55.63
2023-05-09T12:32:43.885Z,56.79
2023-05-09T12:35:11.412Z,59.32
2023-05-09T12:37:38.475Z,59.81
2023-05-09T12:40:06.560Z,60.46
2023-05-09T12:42:35.016Z,62.52
2023-05-09T12:45:05.163Z,61.43
2023-05-09T12:47:32.435Z,63.52
2023-05-09T12:50:03.002Z,60.17
2023-05-09T12:52:54.589Z,60.47
2023-05-09T12:55:28.582Z,62.00
2023-05-09T12:58:03.563Z,62.76
2023-05-09T13:00:44.893Z,62.42
2023-05-09T13:03:29.666Z,64.88
2023-05-09T13:06:04.777Z,61.51
2023-05-09T13:08:32.010Z,65.44
2023-05-09T13:11:11.922Z,65.71
2023-05-09T13:13:42.534Z,66.36
2023-05-09T13:16:11.491Z,67.80
2023-05-09T13:18:38.769Z,64.75
2023-05-09T13:21:05.403Z,62.70
2023-05-09T13:23:32.014Z,60.70
2023-05-09T13:25:58.607Z,61.09
2023-05-09T13:28:25.220Z,59.18
2023-05-09T13:30:51.940Z,59.77
2023-05-09T13:33:26.013Z,66.26
2023-05-09T13:35:53.277Z,64.73
2023-05-09T13:38:19.976Z,62.19
2023-05-09T13:40:46.611Z,58.24
2023-05-09T13:43:13.225Z,60.05
2023-05-09T13:45:39.842Z,58.83
2023-05-09T13:48:06.577Z,59.43
2023-05-09T13:50:34.159Z,58.80
2023-05-09T13:53:00.873Z,60.87
2023-05-09T13:55:27.771Z,61.91
2023-05-09T13:57:54.917Z,61.30
2023-05-09T14:00:22.296Z,60.52
2023-05-09T14:02:48.967Z,58.13
2023-05-09T14:05:16.900Z,59.95
2023-05-09T14:07:43.675Z,62.94
2023-05-09T14:10:12.352Z,62.57
2023-05-09T14:12:44.557Z,62.67
2023-05-09T14:15:11.461Z,61.63
2023-05-09T14:17:38.260Z,62.56
2023-05-09T14:20:06.544Z,60.02
2023-05-09T14:22:33.187Z,60.75
2023-05-09T14:24:59.862Z,61.02
2023-05-09T14:27:26.451Z,59.29
2023-05-09T14:29:53.321Z,60.63
2023-05-09T14:32:20.044Z,58.29
2023-05-09T14:34:49.610Z,60.97
2023-05-09T14:37:16.403Z,61.91
2023-05-09T14:39:45.189Z,60.85
2023-05-09T14:42:14.166Z,59.04
2023-05-09T14:44:41.789Z,59.21
2023-05-09T14:47:09.610Z,59.18
2023-05-09T14:49:37.701Z,60.11
2023-05-09T14:52:04.425Z,63.40
2023-05-09T14:54:31.647Z,64.48
2023-05-09T14:56:59.575Z,64.46
2023-05-09T14:59:26.333Z,62.49
2023-05-09T15:01:53.022Z,64.26
2023-05-09T15:04:19.705Z,63.34
2023-05-09T15:06:46.323Z,62.45
2023-05-09T15:09:14.725Z,62.79
2023-05-09T15:11:48.451Z,61.01
2023-05-09T15:14:16.699Z,59.50
2023-05-09T15:16:43.677Z,60.92
2023-05-09T15:19:10.336Z,62.81
2023-05-09T15:21:36.999Z,62.08
2023-05-09T15:24:05.146Z,57.92
2023-05-09T15:26:32.294Z,58.75
2023-05-09T15:28:59.023Z,60.50
2023-05-09T15:31:25.887Z,60.07
2023-05-09T15:33:52.585Z,60.26
2023-05-09T15:36:19.241Z,60.41
2023-05-09T15:38:49.387Z,61.28
2023-05-09T15:41:16.747Z,61.73
2023-05-09T15:43:43.446Z,63.36
2023-05-09T15:46:10.156Z,59.91
2023-05-09T15:48:36.830Z,60.53
2023-05-09T15:51:04.214Z,61.31
2023-05-09T15:53:31.246Z,61.53
2023-05-09T15:55:57.934Z,61.02
2023-05-09T15:58:24.797Z,60.66
2023-05-09T16:00:51.592Z,64.31
2023-05-09T16:03:18.771Z,61.04
2023-05-09T16:05:45.619Z,61.01
2023-05-09T16:08:12.558Z,60.60
2023-05-09T16:10:39.233Z,60.06
2023-05-09T16:13:06.117Z,60.73
2023-05-09T16:15:32.966Z,60.80
2023-05-09T16:17:59.587Z,62.00
2023-05-09T16:20:26.269Z,62.73
2023-05-09T16:22:52.820Z,60.96
2023-05-09T16:25:19.695Z,61.70
2023-05-09T16:27:46.360Z,62.58
2023-05-09T16:30:13.740Z,61.58
2023-05-09T16:32:40.528Z,61.26
2023-05-09T16:35:07.726Z,63.46
2023-05-09T16:37:35.720Z,66.03
2023-05-09T16:40:02.912Z,65.78
2023-05-09T16:42:29.533Z,64.42
2023-05-09T16:44:57.321Z,64.24
2023-05-09T16:47:26.906Z,62.43
2023-05-09T16:49:53.559Z,63.78
2023-05-09T16:52:20.501Z,62.18
2023-05-09T16:54:47.126Z,63.73
2023-05-09T16:57:13.769Z,64.63
2023-05-09T16:59:40.661Z,63.20
2023-05-09T17:02:07.993Z,65.67
2023-05-09T17:04:36.819Z,64.80
2023-05-09T17:07:04.436Z,63.98
2023-05-09T17:09:32.069Z,63.58
2023-05-09T17:11:59.124Z,64.39
2023-05-09T17:14:26.759Z,63.82
2023-05-09T17:16:53.832Z,66.12
2023-05-09T17:19:23.495Z,66.82
2023-05-09T17:21:50.396Z,65.25
2023-05-09T17:24:17.375Z,64.51
2023-05-09T17:26:44.109Z,66.31
2023-05-09T17:29:10.779Z,64.69
2023-05-09T17:31:37.448Z,67.30
2023-05-09T17:34:05.582Z,67.12
2023-05-09T17:36:33.602Z,67.04
2023-05-09T17:39:00.845Z,68.35
2023-05-09T17:41:27.862Z,67.81
2023-05-09T17:43:57.283Z,67.19
2023-05-09T17:46:24.784Z,66.18
2023-05-09T17:48:51.731Z,68.94
2023-05-09T17:51:18.410Z,68.22
2023-05-09T17:53:44.985Z,70.50
2023-05-09T17:56:11.660Z,70.61
2023-05-09T17:58:38.253Z,69.25
2023-05-09T18:01:05.539Z,68.65
2023-05-09T18:03:32.682Z,68.99
2023-05-09T18:06:02.761Z,73.51
2023-05-09T18:08:29.942Z,70.82
2023-05-09T18:10:57.811Z,73.79
2023-05-09T18:13:24.742Z,73.75
2023-05-09T18:15:51.579Z,72.20
2023-05-09T18:18:18.552Z,72.44
2023-05-09T18:20:47.220Z,71.59
2023-05-09T18:23:15.305Z,73.53
2023-05-09T18:25:42.201Z,75.58
2023-05-09T18:28:09.425Z,74.79
2023-05-09T18:30:36.252Z,73.81
2023-05-09T18:33:03.497Z,74.35
2023-05-09T18:35:30.205Z,72.55
2023-05-09T18:37:56.973Z,72.11
2023-05-09T18:40:23.657Z,76.11
2023-05-09T18:42:50.376Z,75.40
2023-05-09T18:45:17.063Z,73.95
2023-05-09T18:47:43.796Z,75.64
2023-05-09T18:50:11.249Z,73.93
2023-05-09T18:52:37.922Z,73.86
2023-05-09T18:55:05.997Z,73.22
2023-05-09T18:57:33.933Z,75.75
2023-05-09T19:00:00.643Z,74.75
2023-05-09T19:02:27.462Z,75.64
2023-05-09T19:04:54.148Z,76.48
2023-05-09T19:07:20.879Z,76.74
2023-05-09T19:09:47.827Z,76.09
2023-05-09T19:12:16.418Z,76.47
2023-05-09T19:14:43.328Z,74.55
2023-05-09T19:17:10.976Z,74.05
2023-05-09T19:19:37.682Z,76.48
2023-05-09T19:22:04.991Z,77.69
2023-05-09T19:24:32.745Z,78.04
2023-05-09T19:26:59.337Z,75.72
2023-05-09T19:29:25.993Z,76.91
2023-05-09T19:31:52.623Z,76.74
2023-05-09T19:34:19.436Z,75.83
2023-05-09T19:36:46.213Z,75.22
2023-05-09T19:39:12.841Z,76.49
2023-05-09T19:41:39.468Z,78.39
2023-05-09T19:44:07.365Z,77.76
2023-05-09T19:46:35.306Z,81.09
2023-05-09T19:49:02.095Z,77.88
2023-05-09T19:51:28.851Z,78.30
2023-05-09T19:53:55.630Z,79.14
2023-05-09T19:56:23.331Z,79.79
2023-05-09T19:58:50.419Z,80.67
2023-05-09T20:01:19.098Z,82.08
2023-05-09T20:03:47.124Z,80.05
2023-05-09T20:06:14.034Z,79.66
2023-05-09T20:08:40.663Z,80.13
2023-05-09T20:11:07.847Z,79.21
2023-05-09T20:13:34.464Z,80.85
2023-05-09T20:16:02.795Z,82.24
2023-05-09T20:18:29.551Z,79.83
2023-05-09T20:20:56.120Z,79.20
2023-05-09T20:23:22.790Z,79.70
2023-05-09T20:25:49.385Z,81.13
2023-05-09T20:28:20.188Z,78.75
2023-05-09T20:30:47.151Z,77.62
2023-05-09T20:33:13.808Z,80.80
2023-05-09T20:35:43.137Z,81.47
2023-05-09T20:38:10.691Z,78.74
2023-05-09T20:40:37.273Z,79.06
2023-05-09T20:43:03.905Z,79.00
2023-05-09T20:45:30.565Z,77.85
2023-05-09T20:47:57.223Z,79.21
2023-05-09T20:50:23.875Z,83.33
2023-05-09T20:52:50.481Z,81.78
2023-05-09T20:55:17.120Z,84.00
2023-05-09T20:57:43.699Z,80.83
2023-05-09T21:00:10.916Z,84.92
2023-05-09T21:02:37.776Z,83.17
2023-05-09T21:05:04.737Z,82.50
2023-05-09T21:07:31.310Z,87.07
2023-05-09T21:09:58.316Z,83.90
2023-05-09T21:12:24.959Z,85.01
2023-05-09T21:14:51.553Z,88.15
2023-05-09T21:17:18.415Z,84.36
2023-05-09T21:19:45.713Z,80.21
2023-05-09T21:22:12.271Z,83.17
2023-05-09T21:24:38.868Z,83.09
2023-05-09T21:27:06.242Z,82.62
2023-05-09T21:29:32.907Z,80.88
2023-05-09T21:31:59.991Z,80.47
2023-05-09T21:34:26.648Z,78.23
2023-05-09T21:36:53.257Z,79.52
2023-05-09T21:39:19.854Z,79.05
2023-05-09T21:41:46.464Z,78.51
2023-05-09T21:44:13.248Z,78.89
2023-05-09T21:46:41.203Z,79.87
2023-05-09T21:49:08.036Z,84.57
2023-05-09T21:51:35.057Z,81.49
2023-05-09T21:54:01.640Z,80.16
2023-05-09T21:56:28.291Z,79.40
2023-05-09T21:58:54.997Z,79.28
2023-05-09T22:01:21.713Z,77.67
2023-05-09T22:03:48.504Z,78.01
2023-05-09T22:06:15.196Z,77.43
2023-05-09T22:08:41.769Z,77.78
2023-05-09T22:11:08.456Z,81.18
2023-05-09T22:13:36.465Z,80.19
2023-05-09T22:16:04.135Z,78.83
2023-05-09T22:18:31.395Z,79.06
2023-05-09T22:20:58.047Z,80.10
2023-05-09T22:23:24.718Z,80.36
2023-05-09T22:25:51.285Z,78.31
2023-05-09T22:28:17.932Z,77.75
2023-05-09T22:30:44.590Z,78.27
2023-05-09T22:33:11.405Z,78.31
2023-05-09T22:35:38.146Z,78.67
2023-05-09T22:38:04.803Z,77.43
2023-05-09T22:40:31.450Z,77.29
2023-05-09T22:42:58.035Z,77.55
2023-05-09T22:45:24.648Z,77.10
2023-05-09T22:47:51.313Z,82.53
2023-05-09T22:50:18.173Z,81.73
2023-05-09T22:52:44.939Z,79.95
2023-05-09T22:55:11.824Z,81.78
2023-05-09T22:57:38.508Z,83.59
2023-05-09T23:00:06.099Z,81.86
2023-05-09T23:02:32.832Z,82.34
2023-05-09T23:04:59.562Z,83.23
2023-05-09T23:07:26.473Z,82.33
2023-05-09T23:09:53.119Z,81.69
2023-05-09T23:12:19.891Z,80.09
2023-05-09T23:14:46.823Z,80.00
2023-05-09T23:17:13.469Z,79.84
2023-05-09T23:19:40.151Z,78.44
2023-05-09T23:22:06.849Z,78.69
2023-05-09T23:24:33.494Z,77.97
2023-05-09T23:27:02.535Z,77.52
2023-05-09T23:29:29.288Z,76.51
2023-05-09T23:31:55.995Z,76.66
2023-05-09T23:34:22.704Z,83.57
2023-05-09T23:36:49.340Z,79.35
2023-05-09T23:39:16.052Z,78.55
2023-05-09T23:41:42.886Z,78.80
2023-05-09T23:44:09.507Z,79.22
2023-05-09T23:46:36.152Z,79.75
2023-05-09T23:49:02.903Z,77.95
2023-05-09T23:51:29.561Z,77.41
2023-05-09T23:53:56.154Z,82.97
2023-05-09T23:56:22.922Z,87.44
2023-05-09T23:58:49.533Z,85.53
